Time;durP1;ratioP1;P1;durP2;ratioP2;P2;SDS_P1;SDS_P2;PMS_P1;PMS_P2;Temp;Humidity;BMP_temperature;BMP_pressure;BME280_temperature;BME280_humidity;BME280_pressure;Samples;Min_cycle;Max_cycle;Signal;HPM_P1;HPM_P2
2023/02/07 00:00:29;;;;;;;22.80;19.70;;;;;20.50;102762.00;;;;2086734;28;20735;-50
2023/02/07 00:01:30;;;;;;;23.20;19.43;;;;;20.50;102771.00;;;;2086806;28;20216;-50
2023/02/07 00:02:30;;;;;;;24.60;19.80;;;;;20.50;102769.00;;;;2086587;28;20239;-50
2023/02/07 00:03:30;;;;;;;22.33;19.23;;;;;20.50;102771.00;;;;2086613;28;20236;-50
2023/02/07 00:04:31;;;;;;;23.90;19.13;;;;;20.50;102780.00;;;;2086409;28;20665;-50
2023/02/07 00:05:31;;;;;;;22.37;18.50;;;;;20.40;102780.00;;;;2086094;28;20227;-53
2023/02/07 00:06:33;;;;;;;24.53;18.30;;;;;20.40;102776.00;;;;2085377;28;20731;-54
2023/02/07 00:07:33;;;;;;;22.65;18.95;;;;;20.40;102781.00;;;;2086279;28;20204;-50
2023/02/07 00:08:34;;;;;;;23.87;19.60;;;;;20.40;102788.00;;;;2085731;28;20217;-51
2023/02/07 00:09:36;;;;;;;22.80;17.80;;;;;20.40;102791.00;;;;2086566;28;20220;-49
2023/02/07 00:10:36;;;;;;;24.95;18.13;;;;;20.40;102790.00;;;;2086741;28;20211;-51
2023/02/07 00:11:39;;;;;;;21.40;18.40;;;;;20.40;102787.00;;;;2086450;28;20197;-50
2023/02/07 00:12:39;;;;;;;21.42;17.50;;;;;20.40;102803.00;;;;2086638;28;20277;-50
2023/02/07 00:13:40;;;;;;;22.43;17.77;;;;;20.40;102787.00;;;;2086254;28;20242;-50
2023/02/07 00:14:40;;;;;;;21.80;17.00;;;;;20.40;102790.00;;;;2086262;28;20770;-51
2023/02/07 00:15:40;;;;;;;21.73;17.10;;;;;20.40;102788.00;;;;2086323;28;20712;-51
2023/02/07 00:16:41;;;;;;;20.60;16.73;;;;;20.40;102786.00;;;;2086785;28;20687;-50
2023/02/07 00:17:41;;;;;;;19.60;16.90;;;;;20.40;102791.00;;;;2086750;28;20702;-51
2023/02/07 00:18:41;;;;;;;21.77;17.30;;;;;20.40;102783.00;;;;2085111;28;20213;-50
2023/02/07 00:19:42;;;;;;;19.43;17.30;;;;;20.40;102792.00;;;;2086630;28;20700;-50
2023/02/07 00:20:42;;;;;;;20.00;16.80;;;;;20.30;102791.00;;;;2086729;28;20624;-51
2023/02/07 00:21:42;;;;;;;21.67;16.80;;;;;20.30;102800.00;;;;2086815;28;20751;-50
2023/02/07 00:22:43;;;;;;;20.20;17.20;;;;;20.30;102798.00;;;;2086698;28;20669;-50
2023/02/07 00:23:44;;;;;;;18.83;16.33;;;;;20.30;102798.00;;;;2086523;28;20689;-50
2023/02/07 00:24:44;;;;;;;23.10;17.60;;;;;20.30;102806.00;;;;2085203;28;20459;-50
2023/02/07 00:25:45;;;;;;;19.10;15.80;;;;;20.30;102787.00;;;;2086550;28;20623;-50
2023/02/07 00:26:46;;;;;;;20.20;15.77;;;;;20.30;102786.00;;;;2086296;28;20684;-50
2023/02/07 00:27:46;;;;;;;18.80;15.87;;;;;20.30;102782.00;;;;2086683;28;20223;-50
2023/02/07 00:28:47;;;;;;;19.17;14.67;;;;;20.20;102782.00;;;;2085789;28;20444;-50
2023/02/07 00:29:47;;;;;;;18.90;15.10;;;;;20.30;102785.00;;;;2086622;28;20686;-52
2023/02/07 00:30:48;;;;;;;19.13;15.50;;;;;20.30;102789.00;;;;2086365;28;20872;-50
2023/02/07 00:31:48;;;;;;;19.20;15.73;;;;;20.20;102781.00;;;;2086695;28;20212;-49
2023/02/07 00:32:48;;;;;;;16.80;14.37;;;;;20.20;102787.00;;;;2085882;28;20220;-50
2023/02/07 00:33:49;;;;;;;20.30;15.50;;;;;20.20;102791.00;;;;2085600;28;20244;-50
2023/02/07 00:34:50;;;;;;;18.98;15.75;;;;;20.20;102789.00;;;;2086514;28;20613;-49
2023/02/07 00:35:56;;;;;;;19.37;15.23;;;;;20.20;102812.00;;;;2085959;28;20216;-49
2023/02/07 00:36:57;;;;;;;18.00;14.52;;;;;20.20;102794.00;;;;2086860;28;20201;-50
2023/02/07 00:37:57;;;;;;;19.60;14.70;;;;;20.20;102830.00;;;;2085464;28;20208;-50
2023/02/07 00:38:58;;;;;;;20.57;15.30;;;;;20.20;102797.00;;;;2086573;28;20703;-50
2023/02/07 00:39:58;;;;;;;17.08;14.45;;;;;20.20;102805.00;;;;2086538;28;20221;-50
2023/02/07 00:41:00;;;;;;;17.53;14.30;;;;;20.20;102793.00;;;;2086260;28;20756;-50
2023/02/07 00:42:00;;;;;;;17.67;14.57;;;;;20.20;102792.00;;;;2086429;28;20212;-49
2023/02/07 00:43:01;;;;;;;20.50;14.77;;;;;20.20;102789.00;;;;2086691;28;20217;-49
2023/02/07 00:44:01;;;;;;;18.30;13.70;;;;;20.20;102785.00;;;;2086496;28;20303;-50
2023/02/07 00:45:01;;;;;;;17.40;14.37;;;;;20.20;102783.00;;;;2086665;28;20223;-50
2023/02/07 00:46:02;;;;;;;18.80;14.27;;;;;20.20;102785.00;;;;2086183;28;20921;-50
2023/02/07 00:47:03;;;;;;;19.67;14.95;;;;;20.20;102782.00;;;;2086353;28;20224;-49
2023/02/07 00:48:03;;;;;;;15.83;13.50;;;;;20.20;102779.00;;;;2085548;28;20216;-49
2023/02/07 00:49:04;;;;;;;17.07;14.07;;;;;20.20;102782.00;;;;2086200;28;20209;-50
2023/02/07 00:50:04;;;;;;;16.17;13.27;;;;;20.20;102782.00;;;;2086216;28;20885;-50
2023/02/07 00:51:05;;;;;;;15.10;13.00;;;;;20.20;102788.00;;;;2086670;28;20208;-50
2023/02/07 00:52:05;;;;;;;17.30;13.33;;;;;20.10;102786.00;;;;2086706;28;20311;-50
2023/02/07 00:53:05;;;;;;;18.57;13.77;;;;;20.20;102778.00;;;;2086285;28;20228;-50
2023/02/07 00:54:06;;;;;;;15.50;12.47;;;;;20.10;102780.00;;;;2086306;28;20303;-50
2023/02/07 00:55:06;;;;;;;16.43;13.43;;;;;20.10;102783.00;;;;2085789;28;20228;-50
2023/02/07 00:56:07;;;;;;;15.33;13.10;;;;;20.20;102683.00;;;;2085739;28;20212;-50
2023/02/07 00:57:07;;;;;;;15.03;13.17;;;;;20.10;102782.00;;;;2086657;28;20216;-50
2023/02/07 00:58:08;;;;;;;16.47;14.30;;;;;20.10;102774.00;;;;2085470;28;20243;-50
2023/02/07 00:59:08;;;;;;;16.10;12.70;;;;;20.10;102787.00;;;;2086681;28;20216;-50
2023/02/07 01:00:09;;;;;;;16.27;13.10;;;;;20.10;102784.00;;;;2086396;28;20236;-50
2023/02/07 01:01:10;;;;;;;14.18;12.68;;;;;20.10;102781.00;;;;2086068;28;20587;-50
2023/02/07 01:02:10;;;;;;;18.73;13.20;;;;;19.90;102777.00;;;;2086693;28;20303;-50
2023/02/07 01:03:10;;;;;;;17.30;13.80;;;;;20.10;102780.00;;;;2086401;28;20232;-50
2023/02/07 01:04:11;;;;;;;15.37;12.63;;;;;20.10;102797.00;;;;2086084;28;20861;-50
2023/02/07 01:05:11;;;;;;;15.67;13.47;;;;;20.10;102788.00;;;;2086614;28;20740;-49
2023/02/07 01:06:11;;;;;;;16.33;12.43;;;;;20.00;102794.00;;;;2086686;28;20213;-50
2023/02/07 01:07:11;;;;;;;15.30;12.97;;;;;20.10;102815.00;;;;2086708;28;20219;-50
2023/02/07 01:08:12;;;;;;;16.47;12.80;;;;;20.00;102794.00;;;;2085801;28;20328;-50
2023/02/07 01:09:13;;;;;;;14.87;12.73;;;;;20.10;102800.00;;;;2085869;28;20689;-50
2023/02/07 01:10:13;;;;;;;15.63;11.93;;;;;19.80;102796.00;;;;2086163;28;20220;-50
2023/02/07 01:11:15;;;;;;;17.57;13.10;;;;;20.10;102800.00;;;;2086426;28;20829;-50
2023/02/07 01:12:15;;;;;;;14.18;12.68;;;;;20.10;102795.00;;;;2086469;28;20232;-50
2023/02/07 01:13:16;;;;;;;15.77;12.80;;;;;20.00;102809.00;;;;2086429;28;20209;-50
2023/02/07 01:14:16;;;;;;;14.30;12.07;;;;;20.00;102789.00;;;;2085766;28;20256;-50
2023/02/07 01:15:17;;;;;;;12.97;11.67;;;;;20.10;102799.00;;;;2085313;28;20205;-50
2023/02/07 01:16:28;;;;;;;15.77;12.87;;;;;20.10;102793.00;;;;2086659;28;20209;-50
2023/02/07 01:17:28;;;;;;;13.80;11.50;;;;;20.00;102792.00;;;;2084746;28;20244;-50
2023/02/07 01:18:29;;;;;;;13.53;11.60;;;;;20.00;102795.00;;;;2085179;28;20213;-50
2023/02/07 01:19:29;;;;;;;14.40;12.10;;;;;20.00;102796.00;;;;2086345;28;20307;-50
2023/02/07 01:20:29;;;;;;;15.63;12.70;;;;;20.00;102794.00;;;;2086458;28;20271;-50
2023/02/07 01:21:30;;;;;;;14.20;11.63;;;;;20.00;102804.00;;;;2086558;28;20247;-50
2023/02/07 01:22:30;;;;;;;13.93;12.50;;;;;20.00;102795.00;;;;2086622;28;20259;-50
2023/02/07 01:23:30;;;;;;;12.77;11.00;;;;;20.00;102800.00;;;;2086347;28;20214;-49
2023/02/07 01:24:31;;;;;;;14.23;11.90;;;;;20.00;102796.00;;;;2086238;28;20239;-50
2023/02/07 01:25:31;;;;;;;14.70;12.00;;;;;20.00;102800.00;;;;2086079;28;20209;-51
2023/02/07 01:26:31;;;;;;;13.07;11.67;;;;;20.00;102787.00;;;;2087427;28;20640;-50
2023/02/07 01:27:32;;;;;;;13.93;11.40;;;;;20.00;102785.00;;;;2087609;28;20258;-51
2023/02/07 01:28:33;;;;;;;13.07;11.77;;;;;20.00;102770.00;;;;2086882;28;20220;-50
2023/02/07 01:29:33;;;;;;;13.33;10.90;;;;;19.90;102780.00;;;;2088432;28;20539;-51
2023/02/07 01:30:33;;;;;;;14.20;11.77;;;;;19.90;102794.00;;;;2088496;28;20224;-51
2023/02/07 01:31:34;;;;;;;13.40;11.93;;;;;20.00;102777.00;;;;2088207;28;20217;-51
2023/02/07 01:32:34;;;;;;;12.53;11.23;;;;;19.90;102767.00;;;;2087367;28;20212;-50
2023/02/07 01:33:35;;;;;;;13.00;11.60;;;;;19.90;102768.00;;;;2087128;28;20228;-50
2023/02/07 01:34:35;;;;;;;12.83;11.00;;;;;19.90;102774.00;;;;2087740;28;20668;-49
2023/02/07 01:35:36;;;;;;;14.13;11.23;;;;;19.90;102774.00;;;;2087895;28;20217;-51
2023/02/07 01:36:36;;;;;;;13.07;11.77;;;;;19.90;102764.00;;;;2087043;28;20760;-51
2023/02/07 01:37:37;;;;;;;11.37;10.10;;;;;19.90;102789.00;;;;2087308;28;20825;-51
2023/02/07 01:38:37;;;;;;;13.97;11.67;;;;;19.90;102782.00;;;;2085776;28;20296;-52
2023/02/07 01:39:37;;;;;;;12.37;11.03;;;;;19.90;102784.00;;;;2088049;28;20217;-50
2023/02/07 01:40:38;;;;;;;13.53;10.93;;;;;19.90;102774.00;;;;2086765;28;20685;-50
2023/02/07 01:41:38;;;;;;;12.03;10.70;;;;;19.90;102769.00;;;;2070361;28;20775;-51
2023/02/07 01:42:38;;;;;;;13.73;11.37;;;;;19.90;102781.00;;;;2079424;28;20209;-51
2023/02/07 01:43:58;;;;;;;12.83;10.53;;;;;19.90;102781.00;;;;2087465;28;20217;-51
2023/02/07 01:45:04;;;;;;;13.60;10.77;;;;;19.90;102779.00;;;;2087284;28;20216;-51
2023/02/07 01:46:05;;;;;;;11.85;10.65;;;;;19.90;102782.00;;;;2087784;28;20232;-51
2023/02/07 01:47:05;;;;;;;15.07;11.10;;;;;19.90;102782.00;;;;2087751;28;20352;-51
2023/02/07 01:48:11;;;;;;;12.87;10.83;;;;;19.90;102777.00;;;;2085751;28;20307;-51
2023/02/07 01:49:11;;;;;;;13.07;11.45;;;;;19.90;102770.00;;;;2079703;28;20217;-51
2023/02/07 01:50:11;;;;;;;11.63;10.43;;;;;19.80;102778.00;;;;2071056;28;20218;-50
2023/02/07 01:51:12;;;;;;;12.10;10.80;;;;;19.90;102780.00;;;;2079009;28;20217;-51
2023/02/07 01:52:15;;;;;;;12.87;11.33;;;;;19.80;102775.00;;;;2087152;28;20235;-50
2023/02/07 01:53:17;;;;;;;11.70;10.18;;;;;19.80;102791.00;;;;2071435;28;20276;-51
2023/02/07 01:54:17;;;;;;;13.73;11.18;;;;;19.80;102774.00;;;;2079750;28;20213;-51
2023/02/07 01:55:22;;;;;;;12.40;10.37;;;;;19.80;102789.00;;;;2078025;28;21479;-54
2023/02/07 01:56:22;;;;;;;13.93;10.75;;;;;19.90;102806.00;;;;2071847;28;20214;-51
2023/02/07 01:57:22;;;;;;;12.47;10.20;;;;;19.80;102794.00;;;;2071431;28;21023;-49
2023/02/07 01:58:23;;;;;;;12.33;10.50;;;;;19.80;102802.00;;;;2086547;28;20668;-51
2023/02/07 01:59:23;;;;;;;12.60;10.80;;;;;19.80;102803.00;;;;2088255;28;20208;-51
2023/02/07 02:00:24;;;;;;;13.53;11.63;;;;;19.80;102782.00;;;;2087027;28;20278;-50
2023/02/07 02:01:24;;;;;;;12.40;10.87;;;;;19.80;102792.00;;;;2087081;28;20300;-52
2023/02/07 02:02:26;;;;;;;12.60;10.80;;;;;19.80;102794.00;;;;2086942;28;20247;-50
2023/02/07 02:03:27;;;;;;;12.48;10.90;;;;;19.80;102804.00;;;;2086938;28;20201;-50
2023/02/07 02:04:27;;;;;;;14.70;10.27;;;;;19.80;102816.00;;;;2085797;28;20288;-50
2023/02/07 02:05:28;;;;;;;11.67;10.47;;;;;19.80;102789.00;;;;2085678;28;20209;-50
2023/02/07 02:06:29;;;;;;;12.70;10.27;;;;;19.80;102809.00;;;;2078817;28;20260;-50
2023/02/07 02:07:31;;;;;;;11.88;10.55;;;;;19.80;102804.00;;;;2062844;28;20234;-50
2023/02/07 02:08:32;;;;;;;13.25;11.18;;;;;19.80;102798.00;;;;2070156;28;20213;-50
2023/02/07 02:09:32;;;;;;;13.30;11.40;;;;;19.80;102803.00;;;;2087106;28;20739;-50
2023/02/07 02:11:14;;;;;;;13.57;11.13;;;;;19.80;102814.00;;;;2087635;28;21291;-50
2023/02/07 02:12:39;;;;;;;13.10;10.38;;;;;19.80;102802.00;;;;2086918;28;20230;-50
2023/02/07 02:13:48;;;;;;;12.68;10.38;;;;;19.80;102804.00;;;;2087521;28;20232;-50
2023/02/07 02:15:03;;;;;;;10.88;9.60;;;;;19.80;102802.00;;;;2087132;28;20216;-50
2023/02/07 02:16:08;;;;;;;11.85;9.45;;;;;19.70;102796.00;;;;2086788;28;20779;-50
2023/02/07 02:17:47;;;;;;;10.73;9.57;;;;;19.70;102792.00;;;;2086874;28;20227;-50
2023/02/07 02:19:11;;;;;;;13.30;10.07;;;;;19.70;102788.00;;;;2084918;28;20224;-50
2023/02/07 02:20:38;;;;;;;11.70;10.10;;;;;19.70;102799.00;;;;2061663;28;20302;-50
2023/02/07 02:21:56;;;;;;;13.00;11.25;;;;;19.80;102794.00;;;;2087492;28;20208;-49
2023/02/07 02:23:24;;;;;;;10.73;9.55;;;;;19.70;102798.00;;;;2086447;28;20266;-50
2023/02/07 02:24:52;;;;;;;13.35;10.63;;;;;19.70;102800.00;;;;2086793;28;20288;-50
2023/02/07 02:26:14;;;;;;;11.80;9.98;;;;;19.70;102798.00;;;;2087267;28;20225;-53
2023/02/07 02:27:22;;;;;;;10.35;9.07;;;;;19.70;102797.00;;;;2087023;28;20224;-50
2023/02/07 02:28:26;;;;;;;11.43;9.90;;;;;19.70;102799.00;;;;2078779;28;20248;-50
2023/02/07 02:29:48;;;;;;;10.48;9.15;;;;;19.70;102791.00;;;;2078770;28;20213;-51
2023/02/07 02:31:15;;;;;;;11.73;10.48;;;;;19.70;102800.00;;;;2086973;28;20221;-50
2023/02/07 02:32:33;;;;;;;10.93;9.43;;;;;19.70;102796.00;;;;2044972;29;20298;-50
2023/02/07 02:33:56;;;;;;;11.68;10.43;;;;;19.70;102819.00;;;;2087454;28;20212;-50
2023/02/07 02:35:01;;;;;;;11.75;10.13;;;;;19.70;102798.00;;;;2073683;28;20300;-50
2023/02/07 02:36:09;;;;;;;10.25;9.18;;;;;19.70;102805.00;;;;2078680;28;20221;-50
2023/02/07 02:37:45;;;;;;;11.10;9.55;;;;;19.70;102816.00;;;;2072576;28;20702;-50
2023/02/07 02:39:01;;;;;;;11.98;10.15;;;;;19.60;102807.00;;;;2082376;28;20224;-51
2023/02/07 02:40:06;;;;;;;10.80;9.27;;;;;19.60;102809.00;;;;2086992;28;20243;-50
2023/02/07 02:41:21;;;;;;;10.73;9.18;;;;;19.60;102814.00;;;;2078225;28;20240;-50
2023/02/07 02:42:33;;;;;;;10.45;9.27;;;;;19.70;102802.00;;;;2066164;28;20222;-50
2023/02/07 02:43:41;;;;;;;10.88;9.73;;;;;19.70;102784.00;;;;2064663;28;20215;-50
2023/02/07 02:44:51;;;;;;;10.45;9.30;;;;;19.60;102781.00;;;;2065178;28;20219;-50
2023/02/07 02:46:03;;;;;;;10.27;9.10;;;;;19.60;102800.00;;;;2064823;28;20219;-50
2023/02/07 02:47:03;;;;;;;10.60;9.50;;;;;19.60;102806.00;;;;2063868;28;20234;-50
2023/02/07 02:48:04;;;;;;;12.90;10.63;;;;;19.60;102799.00;;;;2069456;28;20229;-51
2023/02/07 02:49:05;;;;;;;12.38;11.07;;;;;19.60;102804.00;;;;2069739;28;20225;-50
2023/02/07 02:50:12;;;;;;;12.00;10.50;;;;;19.60;102803.00;;;;2070319;28;20265;-50
2023/02/07 02:51:13;;;;;;;11.65;10.20;;;;;19.60;102774.00;;;;2078323;28;20552;-50
2023/02/07 02:52:13;;;;;;;11.17;10.03;;;;;19.60;102796.00;;;;2078142;28;20611;-50
2023/02/07 02:53:14;;;;;;;11.53;9.73;;;;;19.60;102787.00;;;;2086068;28;20565;-50
2023/02/07 02:54:31;;;;;;;12.93;10.80;;;;;19.60;102789.00;;;;2085776;28;20237;-49
2023/02/07 02:56:10;;;;;;;12.10;9.90;;;;;19.60;102785.00;;;;2086287;28;20208;-50
2023/02/07 02:57:26;;;;;;;10.65;9.32;;;;;19.60;102787.00;;;;2086434;28;20307;-50
2023/02/07 02:59:03;;;;;;;10.65;9.55;;;;;19.60;102786.00;;;;2083948;28;20217;-50
2023/02/07 03:00:30;;;;;;;11.00;9.60;;;;;19.60;102780.00;;;;2085284;28;20683;-50
2023/02/07 03:01:38;;;;;;;11.25;9.27;;;;;19.60;102774.00;;;;2081250;28;20295;-50
2023/02/07 03:02:43;;;;;;;11.63;9.57;;;;;19.60;102777.00;;;;2085494;28;20238;-51
2023/02/07 03:03:49;;;;;;;11.07;9.88;;;;;19.60;102782.00;;;;2079160;28;20205;-51
2023/02/07 03:05:15;;;;;;;11.45;10.15;;;;;19.60;102770.00;;;;2087106;28;20232;-51
2023/02/07 03:06:20;;;;;;;10.52;9.48;;;;;19.60;102771.00;;;;2049115;28;20331;-51
2023/02/07 03:07:30;;;;;;;10.85;9.75;;;;;19.60;102764.00;;;;2086780;28;20213;-51
2023/02/07 03:09:13;;;;;;;11.13;9.93;;;;;19.60;102768.00;;;;2059504;28;20210;-52
2023/02/07 03:10:30;;;;;;;10.50;9.30;;;;;19.60;102777.00;;;;2080762;28;20615;-51
2023/02/07 03:11:38;;;;;;;11.20;9.75;;;;;19.50;102779.00;;;;2080114;28;20673;-49
2023/02/07 03:12:42;;;;;;;10.38;9.27;;;;;19.50;102775.00;;;;2086684;28;20236;-51
2023/02/07 03:14:04;;;;;;;11.02;9.25;;;;;19.50;102777.00;;;;2086045;28;20221;-50
2023/02/07 03:15:36;;;;;;;11.45;9.77;;;;;19.60;102774.00;;;;2086163;28;20225;-51
2023/02/07 03:16:42;;;;;;;10.60;9.45;;;;;19.60;102782.00;;;;2045026;29;20216;-51
2023/02/07 03:18:02;;;;;;;10.55;9.23;;;;;19.50;102778.00;;;;2069021;28;20213;-51
2023/02/07 03:19:07;;;;;;;9.65;8.63;;;;;19.50;102769.00;;;;2080665;28;20239;-50
2023/02/07 03:20:26;;;;;;;11.48;10.27;;;;;19.50;102789.00;;;;2086226;28;20213;-51
2023/02/07 03:21:29;;;;;;;10.23;9.20;;;;;19.50;102763.00;;;;2080769;28;20208;-50
2023/02/07 03:22:30;;;;;;;11.98;9.75;;;;;19.50;102799.00;;;;2078332;28;20209;-51
2023/02/07 03:23:30;;;;;;;11.00;10.00;;;;;19.50;102778.00;;;;2078000;28;20355;-51
2023/02/07 03:24:32;;;;;;;11.53;9.17;;;;;19.50;102783.00;;;;2061588;28;20234;-51
2023/02/07 03:25:32;;;;;;;10.35;9.35;;;;;19.50;102779.00;;;;2062037;28;20250;-51
2023/02/07 03:26:33;;;;;;;10.33;9.33;;;;;19.50;102784.00;;;;2085913;28;20212;-53
2023/02/07 03:27:33;;;;;;;10.43;9.43;;;;;19.50;102775.00;;;;2085902;28;20220;-50
2023/02/07 03:28:34;;;;;;;10.17;9.17;;;;;19.60;102770.00;;;;2083227;28;20309;-50
2023/02/07 03:29:35;;;;;;;10.20;9.10;;;;;19.50;102779.00;;;;2085937;28;20284;-51
2023/02/07 03:30:35;;;;;;;10.15;9.15;;;;;19.50;102766.00;;;;2077947;28;20214;-51
2023/02/07 03:31:37;;;;;;;11.60;9.37;;;;;19.50;102781.00;;;;2069789;28;20216;-52
2023/02/07 03:32:40;;;;;;;11.60;9.82;;;;;19.50;102781.00;;;;2061886;28;20218;-52
2023/02/07 03:33:41;;;;;;;10.00;9.00;;;;;19.50;102773.00;;;;2069804;28;20694;-51
2023/02/07 03:34:42;;;;;;;9.30;8.40;;;;;19.50;102777.00;;;;2061701;28;20206;-51
2023/02/07 03:35:51;;;;;;;10.35;9.25;;;;;19.50;102799.00;;;;2078645;28;20233;-51
2023/02/07 03:37:11;;;;;;;9.40;8.32;;;;;19.50;102785.00;;;;2086108;28;20769;-50
2023/02/07 03:38:12;;;;;;;9.70;8.70;;;;;19.50;102790.00;;;;2079626;28;20214;-51
2023/02/07 03:39:12;;;;;;;10.47;9.30;;;;;19.50;102794.00;;;;2069703;28;20713;-50
2023/02/07 03:40:12;;;;;;;9.70;8.70;;;;;19.50;102793.00;;;;2077840;28;20213;-51
2023/02/07 03:41:20;;;;;;;10.10;9.10;;;;;19.50;102793.00;;;;2078167;28;20242;-52
2023/02/07 03:42:34;;;;;;;9.85;8.85;;;;;19.50;102790.00;;;;2071101;28;20309;-50
2023/02/07 03:43:34;;;;;;;9.07;8.18;;;;;19.50;102791.00;;;;2074173;28;20725;-53
2023/02/07 03:44:35;;;;;;;10.07;8.97;;;;;19.40;102790.00;;;;2069324;28;20229;-52
2023/02/07 03:45:35;;;;;;;9.93;8.87;;;;;19.40;102788.00;;;;2069377;28;20695;-54
2023/02/07 03:46:36;;;;;;;9.60;8.60;;;;;19.40;102793.00;;;;2077648;28;20263;-54
2023/02/07 03:47:36;;;;;;;9.47;8.57;;;;;19.50;102802.00;;;;2085768;28;20209;-52
2023/02/07 03:48:36;;;;;;;9.37;8.47;;;;;19.50;102809.00;;;;2085403;28;20247;-52
2023/02/07 03:49:37;;;;;;;10.30;9.20;;;;;19.40;102796.00;;;;2085693;28;20213;-51
2023/02/07 03:50:37;;;;;;;9.57;8.57;;;;;19.40;102797.00;;;;2085729;28;20217;-52
2023/02/07 03:51:37;;;;;;;9.40;8.50;;;;;19.40;102809.00;;;;2085695;28;20232;-52
2023/02/07 03:52:38;;;;;;;9.57;8.67;;;;;19.40;102804.00;;;;2086680;28;20217;-51
2023/02/07 03:53:38;;;;;;;8.97;8.07;;;;;19.40;102798.00;;;;2086435;28;20271;-50
2023/02/07 03:54:38;;;;;;;9.97;8.90;;;;;19.40;102801.00;;;;2085931;28;20684;-51
2023/02/07 03:55:39;;;;;;;8.67;7.80;;;;;19.40;102798.00;;;;2086459;28;20588;-52
2023/02/07 03:56:39;;;;;;;9.37;8.43;;;;;19.40;102795.00;;;;2086311;28;20685;-50
2023/02/07 03:57:39;;;;;;;9.90;8.90;;;;;19.40;102794.00;;;;2086159;28;20255;-51
2023/02/07 03:58:40;;;;;;;8.80;8.00;;;;;19.40;102799.00;;;;2085435;28;20212;-52
2023/02/07 03:59:40;;;;;;;9.50;8.60;;;;;19.40;102804.00;;;;2086280;28;20211;-51
2023/02/07 04:00:40;;;;;;;9.43;8.43;;;;;19.40;102802.00;;;;2086220;28;20223;-51
2023/02/07 04:01:42;;;;;;;9.17;8.10;;;;;19.40;102804.00;;;;2085686;28;20219;-51
2023/02/07 04:02:42;;;;;;;9.63;8.63;;;;;19.40;102800.00;;;;2086290;28;20217;-50
2023/02/07 04:03:42;;;;;;;9.87;8.87;;;;;19.40;102793.00;;;;2085311;28;20217;-50
2023/02/07 04:04:43;;;;;;;9.40;8.40;;;;;19.40;102791.00;;;;2085385;28;20216;-52
2023/02/07 04:05:44;;;;;;;9.17;8.23;;;;;19.40;102801.00;;;;2085757;28;20304;-51
2023/02/07 04:06:45;;;;;;;9.23;8.27;;;;;19.40;102793.00;;;;2086077;28;20331;-50
2023/02/07 04:07:45;;;;;;;9.47;8.50;;;;;19.40;102788.00;;;;2085994;28;20226;-50
2023/02/07 04:08:46;;;;;;;10.10;9.00;;;;;19.30;102795.00;;;;2084540;28;20232;-50
2023/02/07 04:09:46;;;;;;;9.97;9.03;;;;;19.40;102788.00;;;;2085589;28;20213;-50
2023/02/07 04:10:58;;;;;;;10.37;9.27;;;;;19.40;102786.00;;;;2086137;28;20240;-50
2023/02/07 04:11:58;;;;;;;9.80;8.90;;;;;19.40;102780.00;;;;2085240;28;20205;-50
2023/02/07 04:12:59;;;;;;;9.03;8.10;;;;;19.40;102782.00;;;;2084875;28;20223;-50
2023/02/07 04:13:59;;;;;;;9.50;8.60;;;;;19.40;102780.00;;;;2085863;28;20232;-50
2023/02/07 04:15:00;;;;;;;8.43;7.60;;;;;19.30;102780.00;;;;2084703;28;20308;-50
2023/02/07 04:16:00;;;;;;;9.20;8.30;;;;;19.40;102788.00;;;;2086073;28;20246;-50
2023/02/07 04:17:01;;;;;;;10.23;9.33;;;;;19.40;102785.00;;;;2085854;28;20451;-50
2023/02/07 04:18:01;;;;;;;10.07;8.77;;;;;19.40;102781.00;;;;2085704;28;20711;-50
2023/02/07 04:19:01;;;;;;;9.23;8.33;;;;;19.40;102784.00;;;;2086549;28;20223;-50
2023/02/07 04:20:02;;;;;;;9.23;8.30;;;;;19.40;102788.00;;;;2086579;28;20213;-50
2023/02/07 04:21:03;;;;;;;8.83;7.97;;;;;19.40;102783.00;;;;2086366;28;20737;-49
2023/02/07 04:22:04;;;;;;;10.77;9.30;;;;;19.30;102778.00;;;;2086789;28;20228;-50
2023/02/07 04:23:04;;;;;;;9.00;8.20;;;;;19.30;102776.00;;;;2086521;28;20219;-50
2023/02/07 04:24:04;;;;;;;9.53;8.47;;;;;19.30;102788.00;;;;2086652;28;20216;-50
2023/02/07 04:25:05;;;;;;;9.43;8.47;;;;;19.30;102782.00;;;;2086671;28;20677;-50
2023/02/07 04:26:05;;;;;;;11.53;9.00;;;;;19.30;102777.00;;;;2086943;28;20246;-50
2023/02/07 04:27:06;;;;;;;9.67;8.70;;;;;19.30;102768.00;;;;2087033;28;20854;-52
2023/02/07 04:28:06;;;;;;;8.70;7.80;;;;;19.30;102772.00;;;;2086058;28;20598;-51
2023/02/07 04:29:06;;;;;;;9.13;8.23;;;;;19.30;102768.00;;;;2087291;28;20258;-51
2023/02/07 04:30:07;;;;;;;10.17;8.97;;;;;19.30;102769.00;;;;2087326;28;20227;-50
2023/02/07 04:31:08;;;;;;;9.98;8.57;;;;;19.30;102767.00;;;;2087345;28;20212;-51
2023/02/07 04:32:08;;;;;;;9.80;8.40;;;;;19.30;102761.00;;;;2085849;28;20712;-51
2023/02/07 04:33:08;;;;;;;9.53;8.40;;;;;19.30;102767.00;;;;2086548;28;20697;-50
2023/02/07 04:34:09;;;;;;;9.53;8.53;;;;;19.30;102767.00;;;;2086297;28;20587;-49
2023/02/07 04:35:09;;;;;;;8.47;7.67;;;;;19.30;102769.00;;;;2086534;28;20579;-50
2023/02/07 04:36:10;;;;;;;9.77;8.77;;;;;19.30;102756.00;;;;2086641;28;20219;-50
2023/02/07 04:37:10;;;;;;;9.40;8.50;;;;;19.30;102770.00;;;;2086749;28;20635;-50
2023/02/07 04:38:11;;;;;;;9.10;8.20;;;;;19.30;102759.00;;;;2086058;28;20248;-50
2023/02/07 04:39:11;;;;;;;9.30;8.30;;;;;19.30;102761.00;;;;2086591;28;20987;-48
2023/02/07 04:40:11;;;;;;;9.77;7.90;;;;;19.30;102763.00;;;;2086366;28;20394;-49
2023/02/07 04:41:12;;;;;;;9.40;8.50;;;;;19.30;102761.00;;;;2086568;28;20270;-50
2023/02/07 04:42:12;;;;;;;9.87;8.60;;;;;19.30;102759.00;;;;2086603;28;20217;-50
2023/02/07 04:43:12;;;;;;;9.20;8.30;;;;;19.30;102762.00;;;;2086453;28;20219;-50
2023/02/07 04:44:13;;;;;;;9.03;8.10;;;;;19.30;102762.00;;;;2086632;28;20951;-49
2023/02/07 04:45:13;;;;;;;11.87;9.60;;;;;19.30;102750.00;;;;2086180;28;20631;-49
2023/02/07 04:46:14;;;;;;;10.77;9.67;;;;;19.30;102751.00;;;;2086792;28;20213;-50
2023/02/07 04:47:14;;;;;;;9.73;8.73;;;;;19.30;102755.00;;;;2086235;28;20709;-53
2023/02/07 04:48:14;;;;;;;10.03;8.33;;;;;19.30;102751.00;;;;2085567;28;20243;-55
2023/02/07 04:49:15;;;;;;;9.77;8.77;;;;;19.30;102755.00;;;;2086663;28;20212;-51
2023/02/07 04:50:15;;;;;;;9.13;8.10;;;;;19.20;102748.00;;;;2086498;28;20205;-51
2023/02/07 04:51:16;;;;;;;9.53;8.60;;;;;19.30;102754.00;;;;2086359;28;20303;-50
2023/02/07 04:52:16;;;;;;;9.30;8.40;;;;;19.30;102749.00;;;;2086457;28;20213;-50
2023/02/07 04:53:16;;;;;;;9.80;8.30;;;;;19.20;102748.00;;;;2086673;28;20212;-50
2023/02/07 04:54:17;;;;;;;9.87;8.93;;;;;19.30;102745.00;;;;2086517;28;20216;-50
2023/02/07 04:55:17;;;;;;;9.43;7.93;;;;;19.20;102747.00;;;;2086472;28;20561;-50
2023/02/07 04:56:17;;;;;;;10.03;8.97;;;;;19.20;102751.00;;;;2085845;28;20904;-50
2023/02/07 04:57:18;;;;;;;10.00;8.97;;;;;19.20;102750.00;;;;2086178;28;21001;-50
2023/02/07 04:58:19;;;;;;;9.90;8.70;;;;;19.20;102752.00;;;;2085482;28;20239;-50
2023/02/07 04:59:19;;;;;;;11.15;9.40;;;;;19.20;102753.00;;;;2085559;28;20212;-49
2023/02/07 05:00:19;;;;;;;8.70;7.80;;;;;19.20;102754.00;;;;2086688;28;20739;-49
2023/02/07 05:01:20;;;;;;;9.10;7.93;;;;;19.30;102756.00;;;;2087926;28;20243;-49
2023/02/07 05:02:20;;;;;;;9.20;8.30;;;;;19.30;102754.00;;;;2088341;28;20212;-49
2023/02/07 05:03:20;;;;;;;10.37;8.73;;;;;19.20;102750.00;;;;2088125;28;20672;-49
2023/02/07 05:04:21;;;;;;;10.43;8.43;;;;;19.20;102750.00;;;;2087977;28;20798;-49
2023/02/07 05:05:21;;;;;;;9.47;8.50;;;;;19.20;102753.00;;;;2087566;28;20273;-50
2023/02/07 05:06:21;;;;;;;9.53;8.53;;;;;19.20;102745.00;;;;2088162;28;20239;-49
2023/02/07 05:07:22;;;;;;;9.20;8.30;;;;;19.20;102741.00;;;;2087993;28;20707;-49
2023/02/07 05:08:22;;;;;;;8.20;7.40;;;;;19.20;102753.00;;;;2087112;28;20761;-50
2023/02/07 05:09:22;;;;;;;9.20;8.03;;;;;19.20;102758.00;;;;2080239;28;20937;-50
2023/02/07 05:10:23;;;;;;;7.80;7.00;;;;;19.20;102754.00;;;;2087653;28;20597;-50